UAL2638 KIAH-KSEA
Flight info
| Callsign | UAL2638 |
|---|---|
| Flight time | 4h 22m |
| Altitude | 32000 |
| Route | STYCK8 DOLEY FUZ SPS KENTO J17 TBE DBL PIH PDT CHINS5 |
| Aircraft | A320/M-SDE3FGHIRWY/LB1 |
Departure
| Time | 2026-05-04 16:11 |
|---|---|
| Airport | George Bush Intercontinental Airport (KIAH) |
Arrival
| Time | 2026-05-04 20:33 |
|---|---|
| Airport | Seattle–Tacoma International Airport (KSEA) |
| Time | Latitude | Longitude | Altitude | Speed | Heading |
|---|---|---|---|---|---|
| 2026-05-04 15:35 | 29.98537 | -95.33927 | 107 ft | 0 kts | 26° |
| 2026-05-04 16:00 | 29.98532 | -95.33930 | 107 ft | 4 kts | 28° |
| 2026-05-04 16:00 | 29.98509 | -95.33947 | 107 ft | 4 kts | 45° |
| 2026-05-04 16:00 | 29.98493 | -95.33972 | 107 ft | 4 kts | 67° |
| 2026-05-04 16:00 | 29.98486 | -95.33994 | 107 ft | 4 kts | 61° |
| 2026-05-04 16:01 | 29.98470 | -95.34015 | 107 ft | 4 kts | 17° |
| 2026-05-04 16:01 | 29.98448 | -95.34014 | 106 ft | 4 kts | 311° |
| 2026-05-04 16:01 | 29.98442 | -95.33989 | 107 ft | 4 kts | 269° |
| 2026-05-04 16:01 | 29.98442 | -95.33981 | 106 ft | 0 kts | 269° |
| 2026-05-04 16:03 | 29.98438 | -95.33991 | 106 ft | 4 kts | 239° |
| 2026-05-04 16:04 | 29.98407 | -95.34034 | 107 ft | 10 kts | 224° |
| 2026-05-04 16:04 | 29.98377 | -95.34249 | 107 ft | 17 kts | 272° |
| 2026-05-04 16:04 | 29.98376 | -95.34388 | 107 ft | 17 kts | 270° |
| 2026-05-04 16:05 | 29.98378 | -95.34526 | 107 ft | 17 kts | 271° |
| 2026-05-04 16:05 | 29.98379 | -95.34643 | 107 ft | 14 kts | 270° |
| 2026-05-04 16:05 | 29.98379 | -95.34893 | 107 ft | 18 kts | 270° |
| 2026-05-04 16:06 | 29.98379 | -95.35044 | 107 ft | 20 kts | 270° |
| 2026-05-04 16:06 | 29.98381 | -95.35321 | 107 ft | 13 kts | 312° |
| 2026-05-04 16:07 | 29.98520 | -95.35406 | 106 ft | 19 kts | 332° |
| 2026-05-04 16:07 | 29.98776 | -95.35612 | 107 ft | 9 kts | 253° |
| 2026-05-04 16:08 | 29.98766 | -95.35633 | 106 ft | 0 kts | 237° |
| 2026-05-04 16:08 | 29.98762 | -95.35642 | 107 ft | 3 kts | 240° |
| 2026-05-04 16:09 | 29.98694 | -95.35730 | 107 ft | 5 kts | 161° |
| 2026-05-04 16:09 | 29.98482 | -95.35599 | 107 ft | 67 kts | 152° |
| 2026-05-04 16:10 | 29.97012 | -95.34701 | 106 ft | 164 kts | 152° |
| 2026-05-04 16:11 | 29.93565 | -95.32939 | 1664 ft | 186 kts | 182° |
| 2026-05-04 16:11 | 29.92284 | -95.33424 | 2006 ft | 208 kts | 208° |
| 2026-05-04 16:12 | 29.90931 | -95.38677 | 3300 ft | 271 kts | 288° |
| 2026-05-04 16:12 | 29.95622 | -95.41660 | 5640 ft | 286 kts | 4° |
| 2026-05-04 16:13 | 29.99618 | -95.41292 | 7200 ft | 290 kts | 4° |
| 2026-05-04 16:13 | 30.03673 | -95.40906 | 8668 ft | 295 kts | 3° |
| 2026-05-04 16:14 | 30.07794 | -95.40538 | 10048 ft | 298 kts | 359° |
| 2026-05-04 16:14 | 30.11717 | -95.41569 | 11391 ft | 293 kts | 331° |
| 2026-05-04 16:15 | 30.17750 | -95.44985 | 12085 ft | 342 kts | 331° |
| 2026-05-04 16:16 | 30.22058 | -95.47408 | 13282 ft | 346 kts | 331° |
| 2026-05-04 16:16 | 30.28626 | -95.51100 | 14972 ft | 354 kts | 330° |
| 2026-05-04 16:17 | 30.33107 | -95.53637 | 16025 ft | 358 kts | 330° |
| 2026-05-04 16:18 | 30.39868 | -95.57470 | 17556 ft | 366 kts | 330° |
| 2026-05-04 16:18 | 30.42165 | -95.58769 | 18070 ft | 368 kts | 330° |
| 2026-05-04 16:19 | 30.49132 | -95.62713 | 19662 ft | 375 kts | 329° |
| 2026-05-04 16:19 | 30.53842 | -95.65377 | 20694 ft | 379 kts | 329° |
| 2026-05-04 16:20 | 30.61086 | -95.69275 | 22007 ft | 386 kts | 330° |
| 2026-05-04 16:20 | 30.65999 | -95.71860 | 22802 ft | 389 kts | 330° |
| 2026-05-04 16:21 | 30.73422 | -95.75821 | 23918 ft | 394 kts | 330° |
| 2026-05-04 16:22 | 30.78412 | -95.78500 | 24601 ft | 397 kts | 330° |
| 2026-05-04 16:22 | 30.85957 | -95.82546 | 25659 ft | 399 kts | 329° |
| 2026-05-04 16:23 | 30.93532 | -95.86622 | 26674 ft | 401 kts | 329° |
| 2026-05-04 16:24 | 31.03618 | -95.92041 | 28380 ft | 393 kts | 329° |
| 2026-05-04 16:25 | 31.08545 | -95.94702 | 29297 ft | 388 kts | 329° |
| 2026-05-04 16:26 | 31.18534 | -95.99160 | 31100 ft | 381 kts | 334° |
| 2026-05-04 16:26 | 31.25940 | -96.02026 | 32058 ft | 372 kts | 333° |
| 2026-05-04 16:28 | 31.38523 | -96.06920 | 32063 ft | 383 kts | 333° |
| 2026-05-04 16:29 | 31.56242 | -96.13823 | 32058 ft | 384 kts | 333° |
| 2026-05-04 16:31 | 31.68910 | -96.18775 | 32066 ft | 383 kts | 333° |
| 2026-05-04 16:32 | 31.84064 | -96.24716 | 32063 ft | 383 kts | 333° |
| 2026-05-04 16:33 | 31.94163 | -96.28686 | 32052 ft | 382 kts | 333° |
| 2026-05-04 16:34 | 32.01721 | -96.31665 | 32046 ft | 383 kts | 333° |
| 2026-05-04 16:35 | 32.16853 | -96.37692 | 32043 ft | 380 kts | 329° |
| 2026-05-04 16:36 | 32.22388 | -96.42357 | 32041 ft | 366 kts | 312° |
| 2026-05-04 16:37 | 32.27920 | -96.48584 | 32038 ft | 367 kts | 313° |
| 2026-05-04 16:38 | 32.35298 | -96.56896 | 32034 ft | 366 kts | 312° |
| 2026-05-04 16:39 | 32.44509 | -96.67304 | 32031 ft | 366 kts | 312° |
| 2026-05-04 16:40 | 32.51871 | -96.75637 | 32026 ft | 366 kts | 312° |
| 2026-05-04 16:41 | 32.61047 | -96.86063 | 32015 ft | 366 kts | 312° |
| 2026-05-04 16:43 | 32.70208 | -96.96490 | 32004 ft | 365 kts | 312° |
| 2026-05-04 16:43 | 32.75695 | -97.02763 | 31999 ft | 365 kts | 312° |
| 2026-05-04 16:45 | 32.86678 | -97.15336 | 31993 ft | 365 kts | 312° |
| 2026-05-04 16:46 | 32.95475 | -97.26118 | 31986 ft | 363 kts | 309° |
| 2026-05-04 16:47 | 33.02358 | -97.34938 | 31979 ft | 363 kts | 309° |
| 2026-05-04 16:48 | 33.09290 | -97.43721 | 31976 ft | 363 kts | 309° |
| 2026-05-04 16:49 | 33.16205 | -97.52524 | 31972 ft | 363 kts | 309° |
| 2026-05-04 16:50 | 33.23105 | -97.61338 | 31969 ft | 363 kts | 309° |
| 2026-05-04 16:51 | 33.28285 | -97.67953 | 31966 ft | 363 kts | 309° |
| 2026-05-04 16:52 | 33.35168 | -97.76788 | 31969 ft | 363 kts | 308° |
| 2026-05-04 16:53 | 33.40302 | -97.83381 | 31966 ft | 363 kts | 309° |
| 2026-05-04 16:54 | 33.47169 | -97.92226 | 31963 ft | 362 kts | 308° |
| 2026-05-04 16:55 | 33.57451 | -98.05510 | 31950 ft | 362 kts | 308° |
| 2026-05-04 16:56 | 33.65997 | -98.16603 | 31934 ft | 362 kts | 308° |
| 2026-05-04 16:57 | 33.71110 | -98.23235 | 31925 ft | 362 kts | 308° |
| 2026-05-04 16:58 | 33.77945 | -98.32127 | 31922 ft | 362 kts | 308° |
| 2026-05-04 17:00 | 33.88180 | -98.45503 | 31915 ft | 362 kts | 308° |
| 2026-05-04 17:01 | 33.96695 | -98.56672 | 31905 ft | 362 kts | 308° |
| 2026-05-04 17:02 | 34.03134 | -98.65947 | 31891 ft | 360 kts | 304° |
| 2026-05-04 17:03 | 34.07701 | -98.73151 | 31879 ft | 361 kts | 304° |
| 2026-05-04 17:03 | 34.12331 | -98.80325 | 31873 ft | 361 kts | 304° |
| 2026-05-04 17:04 | 34.18510 | -98.89882 | 31859 ft | 361 kts | 304° |
| 2026-05-04 17:05 | 34.24666 | -98.99439 | 31832 ft | 362 kts | 304° |
| 2026-05-04 17:06 | 34.29290 | -99.06646 | 31830 ft | 361 kts | 304° |
| 2026-05-04 17:07 | 34.33416 | -99.13071 | 31829 ft | 362 kts | 304° |
| 2026-05-04 17:07 | 34.37002 | -99.18666 | 31831 ft | 362 kts | 304° |
| 2026-05-04 17:08 | 34.41617 | -99.25883 | 31830 ft | 361 kts | 304° |
| 2026-05-04 17:09 | 34.44691 | -99.30703 | 31831 ft | 361 kts | 304° |
| 2026-05-04 17:09 | 34.47766 | -99.35529 | 31836 ft | 362 kts | 304° |
| 2026-05-04 17:10 | 34.55441 | -99.47603 | 31826 ft | 361 kts | 304° |
| 2026-05-04 17:11 | 34.58512 | -99.52437 | 31830 ft | 362 kts | 304° |
| 2026-05-04 17:12 | 34.63111 | -99.59705 | 31831 ft | 361 kts | 304° |
| 2026-05-04 17:13 | 34.70739 | -99.71792 | 31823 ft | 361 kts | 304° |
| 2026-05-04 17:14 | 34.76839 | -99.81491 | 31821 ft | 361 kts | 304° |
| 2026-05-04 17:15 | 34.81415 | -99.88769 | 31820 ft | 361 kts | 304° |
| 2026-05-04 17:16 | 34.87494 | -99.98479 | 31821 ft | 360 kts | 304° |
| 2026-05-04 17:17 | 34.93568 | -100.08209 | 31811 ft | 361 kts | 303° |
| 2026-05-04 17:18 | 34.99641 | -100.17958 | 31810 ft | 361 kts | 303° |
| 2026-05-04 17:19 | 35.05717 | -100.27732 | 31811 ft | 361 kts | 303° |
| 2026-05-04 17:20 | 35.11781 | -100.37518 | 31820 ft | 361 kts | 303° |
| 2026-05-04 17:20 | 35.16309 | -100.44834 | 31823 ft | 362 kts | 303° |
| 2026-05-04 17:21 | 35.22353 | -100.54654 | 31829 ft | 362 kts | 303° |
| 2026-05-04 17:22 | 35.25380 | -100.59567 | 31830 ft | 362 kts | 303° |
| 2026-05-04 17:23 | 35.31423 | -100.69403 | 31849 ft | 361 kts | 303° |
| 2026-05-04 17:24 | 35.35951 | -100.76813 | 31848 ft | 362 kts | 303° |
| 2026-05-04 17:25 | 35.41999 | -100.86707 | 31844 ft | 363 kts | 302° |
| 2026-05-04 17:26 | 35.48029 | -100.96596 | 31863 ft | 363 kts | 302° |
| 2026-05-04 17:27 | 35.55591 | -101.09048 | 31857 ft | 364 kts | 302° |
| 2026-05-04 17:28 | 35.61612 | -101.18994 | 31854 ft | 364 kts | 302° |
| 2026-05-04 17:29 | 35.70176 | -101.33204 | 31852 ft | 365 kts | 302° |
| 2026-05-04 17:31 | 35.77703 | -101.45734 | 31849 ft | 365 kts | 301° |
| 2026-05-04 17:32 | 35.85252 | -101.58336 | 31854 ft | 366 kts | 301° |
| 2026-05-04 17:33 | 35.91296 | -101.68455 | 31858 ft | 367 kts | 301° |
| 2026-05-04 17:34 | 35.97342 | -101.78610 | 31853 ft | 367 kts | 301° |
| 2026-05-04 17:35 | 36.04885 | -101.91353 | 31858 ft | 368 kts | 301° |
| 2026-05-04 17:36 | 36.07911 | -101.96453 | 31864 ft | 368 kts | 301° |
| 2026-05-04 17:36 | 36.10926 | -102.01558 | 31862 ft | 368 kts | 301° |
| 2026-05-04 17:37 | 36.13935 | -102.06678 | 31857 ft | 368 kts | 301° |
| 2026-05-04 17:37 | 36.16926 | -102.11764 | 31861 ft | 368 kts | 301° |
| 2026-05-04 17:38 | 36.19939 | -102.16885 | 31870 ft | 368 kts | 301° |
| 2026-05-04 17:38 | 36.22952 | -102.22003 | 31866 ft | 368 kts | 301° |
| 2026-05-04 17:39 | 36.27462 | -102.29682 | 31874 ft | 367 kts | 301° |
| 2026-05-04 17:39 | 36.30456 | -102.34800 | 31879 ft | 367 kts | 301° |
| 2026-05-04 17:40 | 36.33445 | -102.39929 | 31882 ft | 367 kts | 301° |
| 2026-05-04 17:40 | 36.36428 | -102.45061 | 31884 ft | 366 kts | 301° |
| 2026-05-04 17:41 | 36.39412 | -102.50190 | 31883 ft | 366 kts | 301° |
| 2026-05-04 17:41 | 36.42394 | -102.55317 | 31879 ft | 366 kts | 301° |
| 2026-05-04 17:42 | 36.45380 | -102.60442 | 31880 ft | 366 kts | 301° |
| 2026-05-04 17:42 | 36.48359 | -102.65569 | 31882 ft | 366 kts | 300° |
| 2026-05-04 17:43 | 36.51337 | -102.70712 | 31887 ft | 367 kts | 300° |
| 2026-05-04 17:43 | 36.54310 | -102.75863 | 31893 ft | 366 kts | 300° |
| 2026-05-04 17:44 | 36.57253 | -102.80984 | 31907 ft | 366 kts | 300° |
| 2026-05-04 17:44 | 36.60215 | -102.86130 | 31919 ft | 366 kts | 300° |
| 2026-05-04 17:45 | 36.63189 | -102.91287 | 31920 ft | 366 kts | 300° |
| 2026-05-04 17:45 | 36.66154 | -102.96437 | 31917 ft | 366 kts | 300° |
| 2026-05-04 17:46 | 36.69110 | -103.01600 | 31921 ft | 366 kts | 300° |
| 2026-05-04 17:46 | 36.72060 | -103.06768 | 31914 ft | 366 kts | 300° |
| 2026-05-04 17:47 | 36.75509 | -103.11507 | 31912 ft | 378 kts | 314° |
| 2026-05-04 17:47 | 36.79694 | -103.15494 | 31914 ft | 379 kts | 314° |
| 2026-05-04 17:48 | 36.83884 | -103.19490 | 31919 ft | 378 kts | 314° |
| 2026-05-04 17:48 | 36.88057 | -103.23487 | 31923 ft | 379 kts | 314° |
| 2026-05-04 17:49 | 36.92233 | -103.27509 | 31925 ft | 379 kts | 314° |
| 2026-05-04 17:49 | 36.96416 | -103.31533 | 31920 ft | 379 kts | 314° |
| 2026-05-04 17:50 | 37.00602 | -103.35554 | 31920 ft | 379 kts | 314° |
| 2026-05-04 17:50 | 37.04784 | -103.39586 | 31918 ft | 379 kts | 314° |
| 2026-05-04 17:51 | 37.08963 | -103.43625 | 31917 ft | 380 kts | 314° |
| 2026-05-04 17:51 | 37.13143 | -103.47664 | 31917 ft | 380 kts | 314° |
| 2026-05-04 17:52 | 37.17323 | -103.51712 | 31922 ft | 379 kts | 314° |
| 2026-05-04 17:52 | 37.21498 | -103.55764 | 31939 ft | 380 kts | 314° |
| 2026-05-04 17:53 | 37.25640 | -103.59853 | 31938 ft | 375 kts | 310° |
| 2026-05-04 17:53 | 37.29109 | -103.64638 | 31933 ft | 370 kts | 304° |
| 2026-05-04 17:54 | 37.32488 | -103.69514 | 31950 ft | 369 kts | 304° |
| 2026-05-04 17:54 | 37.35865 | -103.74394 | 31949 ft | 371 kts | 304° |
| 2026-05-04 17:55 | 37.39248 | -103.79284 | 31944 ft | 371 kts | 304° |
| 2026-05-04 17:55 | 37.42637 | -103.84181 | 31935 ft | 371 kts | 304° |
| 2026-05-04 17:56 | 37.46024 | -103.89083 | 31929 ft | 371 kts | 304° |
| 2026-05-04 17:56 | 37.49414 | -103.93993 | 31932 ft | 372 kts | 304° |
| 2026-05-04 17:57 | 37.52805 | -103.98910 | 31937 ft | 372 kts | 304° |
| 2026-05-04 17:57 | 37.55614 | -104.03004 | 31931 ft | 372 kts | 304° |
| 2026-05-04 17:58 | 37.59570 | -104.08768 | 31924 ft | 372 kts | 304° |
| 2026-05-04 17:58 | 37.62956 | -104.13709 | 31934 ft | 372 kts | 304° |
| 2026-05-04 17:59 | 37.66347 | -104.18657 | 31950 ft | 372 kts | 304° |
| 2026-05-04 18:00 | 37.71404 | -104.26063 | 31954 ft | 373 kts | 304° |
| 2026-05-04 18:00 | 37.74785 | -104.31030 | 31934 ft | 372 kts | 304° |
| 2026-05-04 18:01 | 37.78159 | -104.35994 | 31920 ft | 372 kts | 304° |
| 2026-05-04 18:01 | 37.81533 | -104.40959 | 31930 ft | 372 kts | 304° |
| 2026-05-04 18:02 | 37.86597 | -104.48427 | 31945 ft | 372 kts | 304° |
| 2026-05-04 18:02 | 37.89965 | -104.53407 | 31949 ft | 373 kts | 304° |
| 2026-05-04 18:03 | 37.93340 | -104.58399 | 31940 ft | 373 kts | 304° |
| 2026-05-04 18:03 | 37.96717 | -104.63395 | 31928 ft | 373 kts | 304° |
| 2026-05-04 18:04 | 38.00081 | -104.68373 | 31922 ft | 372 kts | 304° |
| 2026-05-04 18:05 | 38.05122 | -104.75876 | 31897 ft | 373 kts | 304° |
| 2026-05-04 18:05 | 38.08476 | -104.80868 | 31890 ft | 374 kts | 304° |
| 2026-05-04 18:06 | 38.13557 | -104.88445 | 31911 ft | 376 kts | 304° |
| 2026-05-04 18:06 | 38.16947 | -104.93521 | 31928 ft | 378 kts | 304° |
| 2026-05-04 18:07 | 38.20341 | -104.98616 | 31923 ft | 377 kts | 304° |
| 2026-05-04 18:07 | 38.23736 | -105.03709 | 31933 ft | 377 kts | 304° |
| 2026-05-04 18:08 | 38.27133 | -105.08802 | 31930 ft | 378 kts | 304° |
| 2026-05-04 18:08 | 38.30526 | -105.13912 | 31938 ft | 378 kts | 304° |
| 2026-05-04 18:09 | 38.37302 | -105.24135 | 31926 ft | 378 kts | 304° |
| 2026-05-04 18:10 | 38.40698 | -105.29258 | 31928 ft | 379 kts | 304° |
| 2026-05-04 18:10 | 38.44094 | -105.34401 | 31928 ft | 379 kts | 304° |
| 2026-05-04 18:11 | 38.47477 | -105.39548 | 31936 ft | 378 kts | 304° |
| 2026-05-04 18:11 | 38.50863 | -105.44685 | 31946 ft | 378 kts | 303° |
| 2026-05-04 18:12 | 38.54227 | -105.49804 | 31955 ft | 379 kts | 303° |
| 2026-05-04 18:12 | 38.57635 | -105.55001 | 31974 ft | 380 kts | 303° |
| 2026-05-04 18:13 | 38.61001 | -105.60132 | 32009 ft | 379 kts | 303° |
| 2026-05-04 18:14 | 38.66069 | -105.67901 | 32028 ft | 379 kts | 303° |
| 2026-05-04 18:14 | 38.69448 | -105.73085 | 32038 ft | 379 kts | 303° |
| 2026-05-04 18:15 | 38.76201 | -105.83457 | 32049 ft | 379 kts | 303° |
| 2026-05-04 18:16 | 38.79570 | -105.88644 | 32051 ft | 379 kts | 303° |
| 2026-05-04 18:16 | 38.82938 | -105.93846 | 32054 ft | 379 kts | 303° |
| 2026-05-04 18:17 | 38.87992 | -106.01670 | 32052 ft | 379 kts | 303° |
| 2026-05-04 18:18 | 38.93049 | -106.09499 | 32053 ft | 380 kts | 303° |
| 2026-05-04 18:18 | 38.95847 | -106.13843 | 32056 ft | 380 kts | 303° |
| 2026-05-04 18:19 | 39.01451 | -106.22562 | 32074 ft | 381 kts | 303° |
| 2026-05-04 18:19 | 39.04826 | -106.27817 | 32099 ft | 381 kts | 303° |
| 2026-05-04 18:20 | 39.07630 | -106.32196 | 32138 ft | 382 kts | 303° |
| 2026-05-04 18:20 | 39.10999 | -106.37472 | 32146 ft | 382 kts | 303° |
| 2026-05-04 18:21 | 39.14370 | -106.42764 | 32135 ft | 382 kts | 303° |
| 2026-05-04 18:21 | 39.17745 | -106.48064 | 32140 ft | 383 kts | 303° |
| 2026-05-04 18:22 | 39.21121 | -106.53372 | 32133 ft | 382 kts | 303° |
| 2026-05-04 18:22 | 39.24496 | -106.58677 | 32121 ft | 382 kts | 303° |
| 2026-05-04 18:23 | 39.27869 | -106.63988 | 32120 ft | 383 kts | 303° |
| 2026-05-04 18:23 | 39.31232 | -106.69304 | 32108 ft | 383 kts | 303° |
| 2026-05-04 18:24 | 39.34598 | -106.74631 | 32114 ft | 383 kts | 303° |
| 2026-05-04 18:24 | 39.37965 | -106.79969 | 32094 ft | 383 kts | 303° |
| 2026-05-04 18:25 | 39.41308 | -106.85277 | 32088 ft | 383 kts | 303° |
| 2026-05-04 18:25 | 39.44676 | -106.90624 | 32082 ft | 383 kts | 303° |
| 2026-05-04 18:26 | 39.48106 | -106.95919 | 32078 ft | 384 kts | 304° |
| 2026-05-04 18:26 | 39.51564 | -107.01188 | 32074 ft | 385 kts | 304° |
| 2026-05-04 18:27 | 39.55022 | -107.06472 | 32061 ft | 384 kts | 304° |
| 2026-05-04 18:27 | 39.58468 | -107.11772 | 32058 ft | 385 kts | 304° |
| 2026-05-04 18:28 | 39.61910 | -107.17089 | 32061 ft | 385 kts | 304° |
| 2026-05-04 18:28 | 39.65348 | -107.22411 | 32069 ft | 385 kts | 304° |
| 2026-05-04 18:29 | 39.68799 | -107.27744 | 32076 ft | 386 kts | 304° |
| 2026-05-04 18:29 | 39.72241 | -107.33085 | 32081 ft | 386 kts | 304° |
| 2026-05-04 18:30 | 39.77408 | -107.41122 | 32087 ft | 387 kts | 304° |
| 2026-05-04 18:31 | 39.80856 | -107.46490 | 32078 ft | 387 kts | 304° |
| 2026-05-04 18:31 | 39.84307 | -107.51869 | 32067 ft | 387 kts | 304° |
| 2026-05-04 18:32 | 39.87748 | -107.57264 | 32053 ft | 387 kts | 304° |
| 2026-05-04 18:32 | 39.91198 | -107.62665 | 32053 ft | 388 kts | 304° |
| 2026-05-04 18:33 | 39.94649 | -107.68077 | 32044 ft | 389 kts | 304° |
| 2026-05-04 18:33 | 39.98103 | -107.73499 | 32041 ft | 388 kts | 304° |
| 2026-05-04 18:34 | 40.01552 | -107.78930 | 32038 ft | 389 kts | 304° |
| 2026-05-04 18:34 | 40.04984 | -107.84333 | 32034 ft | 389 kts | 304° |
| 2026-05-04 18:35 | 40.08440 | -107.89778 | 32037 ft | 389 kts | 304° |
| 2026-05-04 18:35 | 40.11887 | -107.95240 | 32039 ft | 390 kts | 304° |
| 2026-05-04 18:36 | 40.15328 | -108.00703 | 32039 ft | 389 kts | 304° |
| 2026-05-04 18:36 | 40.18775 | -108.06167 | 32031 ft | 389 kts | 304° |
| 2026-05-04 18:37 | 40.22220 | -108.11649 | 32029 ft | 390 kts | 304° |
| 2026-05-04 18:37 | 40.25669 | -108.17143 | 32024 ft | 391 kts | 304° |
| 2026-05-04 18:38 | 40.29116 | -108.22647 | 32016 ft | 391 kts | 304° |
| 2026-05-04 18:38 | 40.32560 | -108.28158 | 32007 ft | 391 kts | 304° |
| 2026-05-04 18:39 | 40.36011 | -108.33688 | 31985 ft | 392 kts | 304° |
| 2026-05-04 18:39 | 40.39467 | -108.39235 | 31985 ft | 393 kts | 304° |
| 2026-05-04 18:40 | 40.42932 | -108.44799 | 31977 ft | 394 kts | 304° |
| 2026-05-04 18:40 | 40.46401 | -108.50384 | 31975 ft | 395 kts | 304° |
| 2026-05-04 18:41 | 40.49849 | -108.55943 | 31971 ft | 395 kts | 304° |
| 2026-05-04 18:41 | 40.53348 | -108.61598 | 31966 ft | 397 kts | 304° |
| 2026-05-04 18:42 | 40.56809 | -108.67202 | 31966 ft | 398 kts | 304° |
| 2026-05-04 18:42 | 40.60304 | -108.72870 | 31963 ft | 399 kts | 304° |
| 2026-05-04 18:43 | 40.63807 | -108.78562 | 31961 ft | 401 kts | 304° |
| 2026-05-04 18:43 | 40.67316 | -108.84283 | 31958 ft | 402 kts | 304° |
| 2026-05-04 18:44 | 40.70833 | -108.90025 | 31956 ft | 402 kts | 304° |
| 2026-05-04 18:44 | 40.74350 | -108.95772 | 31951 ft | 403 kts | 304° |
| 2026-05-04 18:45 | 40.77873 | -109.01541 | 31948 ft | 404 kts | 304° |
| 2026-05-04 18:45 | 40.81398 | -109.07323 | 31947 ft | 405 kts | 304° |
| 2026-05-04 18:46 | 40.84936 | -109.13128 | 31949 ft | 406 kts | 304° |
| 2026-05-04 18:46 | 40.88479 | -109.18957 | 31953 ft | 408 kts | 304° |
| 2026-05-04 18:47 | 40.92029 | -109.24810 | 31954 ft | 408 kts | 304° |
| 2026-05-04 18:47 | 40.95576 | -109.30675 | 31954 ft | 408 kts | 304° |
| 2026-05-04 18:48 | 40.99116 | -109.36545 | 31952 ft | 409 kts | 304° |
| 2026-05-04 18:48 | 41.02668 | -109.42439 | 31953 ft | 410 kts | 304° |
| 2026-05-04 18:49 | 41.06225 | -109.48343 | 31950 ft | 410 kts | 305° |
| 2026-05-04 18:49 | 41.09763 | -109.54218 | 31947 ft | 411 kts | 305° |
| 2026-05-04 18:50 | 41.13319 | -109.60162 | 31946 ft | 412 kts | 305° |
| 2026-05-04 18:50 | 41.16876 | -109.66118 | 31944 ft | 413 kts | 305° |
| 2026-05-04 18:51 | 41.20449 | -109.72094 | 31947 ft | 414 kts | 305° |
| 2026-05-04 18:51 | 41.24026 | -109.78097 | 31949 ft | 415 kts | 305° |
| 2026-05-04 18:52 | 41.27628 | -109.84170 | 31948 ft | 416 kts | 305° |
| 2026-05-04 18:52 | 41.31195 | -109.90182 | 31952 ft | 417 kts | 306° |
| 2026-05-04 18:53 | 41.34792 | -109.96259 | 31957 ft | 419 kts | 306° |
| 2026-05-04 18:53 | 41.38396 | -110.02351 | 31961 ft | 420 kts | 306° |
| 2026-05-04 18:54 | 41.42017 | -110.08473 | 31967 ft | 421 kts | 306° |
| 2026-05-04 18:54 | 41.45638 | -110.14632 | 31971 ft | 423 kts | 306° |
| 2026-05-04 18:55 | 41.49261 | -110.20820 | 31978 ft | 424 kts | 306° |
| 2026-05-04 18:55 | 41.54723 | -110.30126 | 31984 ft | 425 kts | 306° |
| 2026-05-04 18:56 | 41.58362 | -110.36355 | 31999 ft | 425 kts | 306° |
| 2026-05-04 18:56 | 41.61997 | -110.42593 | 32000 ft | 426 kts | 306° |
| 2026-05-04 18:57 | 41.65639 | -110.48848 | 32004 ft | 426 kts | 306° |
| 2026-05-04 18:57 | 41.69275 | -110.55113 | 32007 ft | 426 kts | 306° |
| 2026-05-04 18:58 | 41.72910 | -110.61374 | 32006 ft | 426 kts | 306° |
| 2026-05-04 18:58 | 41.76540 | -110.67638 | 32004 ft | 426 kts | 306° |
| 2026-05-04 18:59 | 41.80141 | -110.73877 | 32001 ft | 426 kts | 306° |
| 2026-05-04 18:59 | 41.83783 | -110.80210 | 32001 ft | 426 kts | 306° |
| 2026-05-04 19:00 | 41.87379 | -110.86473 | 31998 ft | 426 kts | 306° |
| 2026-05-04 19:00 | 41.91000 | -110.92782 | 31996 ft | 427 kts | 306° |
| 2026-05-04 19:01 | 41.94618 | -110.99099 | 31988 ft | 427 kts | 306° |
| 2026-05-04 19:01 | 41.98236 | -111.05423 | 31978 ft | 427 kts | 306° |
| 2026-05-04 19:02 | 42.01848 | -111.11769 | 31962 ft | 427 kts | 306° |
| 2026-05-04 19:02 | 42.05462 | -111.18132 | 31933 ft | 429 kts | 307° |
| 2026-05-04 19:03 | 42.09084 | -111.24509 | 31931 ft | 430 kts | 307° |
| 2026-05-04 19:03 | 42.12722 | -111.30914 | 31929 ft | 431 kts | 307° |
| 2026-05-04 19:04 | 42.16357 | -111.37343 | 31927 ft | 432 kts | 307° |
| 2026-05-04 19:04 | 42.19969 | -111.43750 | 31931 ft | 432 kts | 307° |
| 2026-05-04 19:05 | 42.23633 | -111.50260 | 31926 ft | 433 kts | 307° |
| 2026-05-04 19:05 | 42.27273 | -111.56738 | 31929 ft | 434 kts | 307° |
| 2026-05-04 19:06 | 42.30892 | -111.63209 | 31926 ft | 435 kts | 307° |
| 2026-05-04 19:06 | 42.34544 | -111.69730 | 31934 ft | 435 kts | 307° |
| 2026-05-04 19:07 | 42.38191 | -111.76265 | 31931 ft | 435 kts | 306° |
| 2026-05-04 19:07 | 42.41828 | -111.82813 | 31924 ft | 435 kts | 306° |
| 2026-05-04 19:08 | 42.45461 | -111.89368 | 31928 ft | 435 kts | 306° |
| 2026-05-04 19:08 | 42.49100 | -111.95918 | 31932 ft | 436 kts | 306° |
| 2026-05-04 19:09 | 42.52739 | -112.02486 | 31925 ft | 436 kts | 306° |
| 2026-05-04 19:09 | 42.56373 | -112.09063 | 31918 ft | 436 kts | 307° |
| 2026-05-04 19:10 | 42.60007 | -112.15648 | 31934 ft | 436 kts | 307° |
| 2026-05-04 19:10 | 42.63630 | -112.22244 | 31932 ft | 436 kts | 307° |
| 2026-05-04 19:11 | 42.66634 | -112.27724 | 31923 ft | 435 kts | 307° |
| 2026-05-04 19:11 | 42.70249 | -112.34324 | 31911 ft | 435 kts | 307° |
| 2026-05-04 19:12 | 42.75655 | -112.44242 | 31909 ft | 435 kts | 307° |
| 2026-05-04 19:13 | 42.79248 | -112.50860 | 31904 ft | 434 kts | 307° |
| 2026-05-04 19:13 | 42.82838 | -112.57476 | 31905 ft | 434 kts | 307° |
| 2026-05-04 19:14 | 42.86426 | -112.64073 | 31903 ft | 433 kts | 307° |
| 2026-05-04 19:14 | 42.89918 | -112.70772 | 31901 ft | 433 kts | 305° |
| 2026-05-04 19:15 | 42.93272 | -112.77596 | 31898 ft | 433 kts | 304° |
| 2026-05-04 19:15 | 42.97152 | -112.85534 | 31898 ft | 432 kts | 304° |
| 2026-05-04 19:16 | 42.99974 | -112.91239 | 31897 ft | 432 kts | 305° |
| 2026-05-04 19:16 | 43.03348 | -112.98036 | 31914 ft | 432 kts | 305° |
| 2026-05-04 19:17 | 43.06698 | -113.04795 | 31912 ft | 432 kts | 305° |
| 2026-05-04 19:17 | 43.10055 | -113.11604 | 31908 ft | 432 kts | 305° |
| 2026-05-04 19:18 | 43.13414 | -113.18419 | 31907 ft | 432 kts | 305° |
| 2026-05-04 19:18 | 43.16764 | -113.25240 | 31907 ft | 431 kts | 305° |
| 2026-05-04 19:19 | 43.20102 | -113.32070 | 31904 ft | 431 kts | 305° |
| 2026-05-04 19:19 | 43.23432 | -113.38906 | 31901 ft | 431 kts | 305° |
| 2026-05-04 19:20 | 43.26765 | -113.45730 | 31904 ft | 431 kts | 305° |
| 2026-05-04 19:20 | 43.30094 | -113.52565 | 31904 ft | 430 kts | 305° |
| 2026-05-04 19:21 | 43.33412 | -113.59405 | 31908 ft | 430 kts | 305° |
| 2026-05-04 19:21 | 43.36716 | -113.66248 | 31906 ft | 429 kts | 305° |
| 2026-05-04 19:22 | 43.39994 | -113.73044 | 31916 ft | 429 kts | 305° |
| 2026-05-04 19:22 | 43.43292 | -113.79884 | 31918 ft | 429 kts | 305° |
| 2026-05-04 19:23 | 43.46580 | -113.86720 | 31918 ft | 429 kts | 305° |
| 2026-05-04 19:23 | 43.49868 | -113.93565 | 31927 ft | 428 kts | 306° |
| 2026-05-04 19:24 | 43.53148 | -114.00411 | 31931 ft | 428 kts | 305° |
| 2026-05-04 19:24 | 43.56414 | -114.07266 | 31939 ft | 428 kts | 306° |
| 2026-05-04 19:25 | 43.59675 | -114.14128 | 31936 ft | 428 kts | 306° |
| 2026-05-04 19:25 | 43.62938 | -114.20990 | 31945 ft | 428 kts | 306° |
| 2026-05-04 19:26 | 43.66194 | -114.27853 | 31934 ft | 427 kts | 306° |
| 2026-05-04 19:26 | 43.69446 | -114.34730 | 31945 ft | 427 kts | 306° |
| 2026-05-04 19:27 | 43.72693 | -114.41617 | 31936 ft | 428 kts | 305° |
| 2026-05-04 19:27 | 43.75937 | -114.48509 | 31933 ft | 428 kts | 305° |
| 2026-05-04 19:28 | 43.79181 | -114.55420 | 31929 ft | 428 kts | 305° |
| 2026-05-04 19:28 | 43.82426 | -114.62339 | 31958 ft | 429 kts | 305° |
| 2026-05-04 19:29 | 43.85669 | -114.69281 | 31952 ft | 429 kts | 305° |
| 2026-05-04 19:29 | 43.88908 | -114.76241 | 31946 ft | 430 kts | 305° |
| 2026-05-04 19:30 | 43.92153 | -114.83211 | 31938 ft | 430 kts | 305° |
| 2026-05-04 19:30 | 43.95391 | -114.90195 | 31937 ft | 431 kts | 305° |
| 2026-05-04 19:31 | 43.98635 | -114.97206 | 31946 ft | 432 kts | 305° |
| 2026-05-04 19:31 | 44.01858 | -115.04192 | 31948 ft | 432 kts | 306° |
| 2026-05-04 19:32 | 44.05091 | -115.11218 | 31972 ft | 431 kts | 306° |
| 2026-05-04 19:32 | 44.08314 | -115.18234 | 31977 ft | 430 kts | 306° |
| 2026-05-04 19:33 | 44.11552 | -115.25286 | 31971 ft | 429 kts | 306° |
| 2026-05-04 19:33 | 44.14742 | -115.32242 | 31963 ft | 430 kts | 306° |
| 2026-05-04 19:34 | 44.17945 | -115.39274 | 31958 ft | 430 kts | 306° |
| 2026-05-04 19:34 | 44.21151 | -115.46325 | 31951 ft | 431 kts | 306° |
| 2026-05-04 19:35 | 44.24365 | -115.53391 | 31945 ft | 432 kts | 306° |
| 2026-05-04 19:35 | 44.27583 | -115.60474 | 31938 ft | 432 kts | 306° |
| 2026-05-04 19:36 | 44.30785 | -115.67576 | 31937 ft | 433 kts | 306° |
| 2026-05-04 19:36 | 44.33979 | -115.74710 | 31934 ft | 433 kts | 306° |
| 2026-05-04 19:37 | 44.37179 | -115.81851 | 31930 ft | 433 kts | 306° |
| 2026-05-04 19:37 | 44.40385 | -115.88993 | 31938 ft | 434 kts | 306° |
| 2026-05-04 19:38 | 44.43595 | -115.96141 | 31936 ft | 434 kts | 306° |
| 2026-05-04 19:38 | 44.46796 | -116.03302 | 31940 ft | 434 kts | 306° |
| 2026-05-04 19:39 | 44.49985 | -116.10477 | 31931 ft | 434 kts | 306° |
| 2026-05-04 19:39 | 44.53171 | -116.17657 | 31929 ft | 434 kts | 306° |
| 2026-05-04 19:40 | 44.56355 | -116.24846 | 31930 ft | 434 kts | 306° |
| 2026-05-04 19:40 | 44.59536 | -116.32041 | 31954 ft | 434 kts | 306° |
| 2026-05-04 19:41 | 44.62716 | -116.39252 | 31947 ft | 434 kts | 306° |
| 2026-05-04 19:41 | 44.65864 | -116.46427 | 31933 ft | 434 kts | 306° |
| 2026-05-04 19:42 | 44.69022 | -116.53654 | 31937 ft | 434 kts | 306° |
| 2026-05-04 19:42 | 44.72182 | -116.60865 | 31938 ft | 434 kts | 306° |
| 2026-05-04 19:43 | 44.75340 | -116.68090 | 31929 ft | 433 kts | 306° |
| 2026-05-04 19:43 | 44.78488 | -116.75331 | 31935 ft | 434 kts | 306° |
| 2026-05-04 19:44 | 44.81627 | -116.82583 | 31936 ft | 434 kts | 306° |
| 2026-05-04 19:44 | 44.84768 | -116.89843 | 31941 ft | 434 kts | 306° |
| 2026-05-04 19:45 | 44.87907 | -116.97097 | 31936 ft | 433 kts | 306° |
| 2026-05-04 19:45 | 44.91039 | -117.04360 | 31936 ft | 433 kts | 306° |
| 2026-05-04 19:46 | 44.94164 | -117.11621 | 31939 ft | 433 kts | 306° |
| 2026-05-04 19:46 | 44.97276 | -117.18908 | 31937 ft | 433 kts | 306° |
| 2026-05-04 19:47 | 45.00386 | -117.26202 | 31937 ft | 433 kts | 306° |
| 2026-05-04 19:47 | 45.03497 | -117.33496 | 31931 ft | 433 kts | 306° |
| 2026-05-04 19:48 | 45.06603 | -117.40803 | 31931 ft | 434 kts | 306° |
| 2026-05-04 19:48 | 45.09696 | -117.48119 | 31934 ft | 434 kts | 305° |
| 2026-05-04 19:49 | 45.12788 | -117.55447 | 31930 ft | 433 kts | 306° |
| 2026-05-04 19:49 | 45.15881 | -117.62769 | 31931 ft | 433 kts | 306° |
| 2026-05-04 19:50 | 45.18967 | -117.70093 | 31929 ft | 433 kts | 306° |
| 2026-05-04 19:50 | 45.22048 | -117.77419 | 31958 ft | 432 kts | 305° |
| 2026-05-04 19:51 | 45.25099 | -117.84706 | 31941 ft | 432 kts | 305° |
| 2026-05-04 19:51 | 45.28156 | -117.92036 | 31935 ft | 432 kts | 305° |
| 2026-05-04 19:52 | 45.31213 | -117.99373 | 31924 ft | 431 kts | 305° |
| 2026-05-04 19:52 | 45.34261 | -118.06710 | 31917 ft | 431 kts | 305° |
| 2026-05-04 19:53 | 45.37327 | -118.14111 | 31916 ft | 432 kts | 305° |
| 2026-05-04 19:53 | 45.40346 | -118.21416 | 31950 ft | 432 kts | 305° |
| 2026-05-04 19:54 | 45.43381 | -118.28797 | 31949 ft | 432 kts | 305° |
| 2026-05-04 19:54 | 45.46410 | -118.36182 | 31955 ft | 432 kts | 305° |
| 2026-05-04 19:55 | 45.49437 | -118.43575 | 31960 ft | 432 kts | 305° |
| 2026-05-04 19:55 | 45.52462 | -118.50964 | 31963 ft | 431 kts | 305° |
| 2026-05-04 19:56 | 45.55480 | -118.58348 | 31959 ft | 431 kts | 305° |
| 2026-05-04 19:56 | 45.58488 | -118.65756 | 31949 ft | 431 kts | 305° |
| 2026-05-04 19:57 | 45.61493 | -118.73175 | 31933 ft | 432 kts | 305° |
| 2026-05-04 19:57 | 45.64498 | -118.80608 | 31915 ft | 432 kts | 305° |
| 2026-05-04 19:58 | 45.67499 | -118.88059 | 31904 ft | 432 kts | 305° |
| 2026-05-04 19:58 | 45.70691 | -118.95307 | 31893 ft | 427 kts | 314° |
| 2026-05-04 19:59 | 45.74541 | -119.01763 | 31890 ft | 426 kts | 315° |
| 2026-05-04 19:59 | 45.78380 | -119.08245 | 31887 ft | 427 kts | 315° |
| 2026-05-04 20:00 | 45.82215 | -119.14759 | 31884 ft | 427 kts | 315° |
| 2026-05-04 20:00 | 45.86028 | -119.21232 | 31878 ft | 428 kts | 315° |
| 2026-05-04 20:01 | 45.89891 | -119.27788 | 31873 ft | 428 kts | 315° |
| 2026-05-04 20:01 | 45.93704 | -119.34271 | 31869 ft | 428 kts | 315° |
| 2026-05-04 20:02 | 45.97540 | -119.40814 | 31867 ft | 428 kts | 314° |
| 2026-05-04 20:02 | 46.00739 | -119.46304 | 31868 ft | 428 kts | 314° |
| 2026-05-04 20:03 | 46.04554 | -119.52856 | 31873 ft | 426 kts | 314° |
| 2026-05-04 20:03 | 46.08362 | -119.59393 | 31875 ft | 426 kts | 314° |
| 2026-05-04 20:04 | 46.12167 | -119.65930 | 31871 ft | 426 kts | 314° |
| 2026-05-04 20:04 | 46.15933 | -119.72444 | 31870 ft | 426 kts | 314° |
| 2026-05-04 20:05 | 46.19716 | -119.79023 | 31864 ft | 426 kts | 314° |
| 2026-05-04 20:05 | 46.23503 | -119.85598 | 31861 ft | 426 kts | 314° |
| 2026-05-04 20:06 | 46.27294 | -119.92186 | 31865 ft | 426 kts | 314° |
| 2026-05-04 20:06 | 46.31082 | -119.98786 | 31859 ft | 426 kts | 314° |
| 2026-05-04 20:07 | 46.34868 | -120.05396 | 31864 ft | 426 kts | 314° |
| 2026-05-04 20:07 | 46.38651 | -120.12015 | 31868 ft | 427 kts | 314° |
| 2026-05-04 20:08 | 46.42421 | -120.18651 | 31871 ft | 426 kts | 314° |
| 2026-05-04 20:08 | 46.46179 | -120.25279 | 31870 ft | 426 kts | 314° |
| 2026-05-04 20:09 | 46.49939 | -120.31916 | 31875 ft | 425 kts | 314° |
| 2026-05-04 20:09 | 46.53694 | -120.38556 | 31880 ft | 425 kts | 314° |
| 2026-05-04 20:10 | 46.57428 | -120.45226 | 31881 ft | 426 kts | 312° |
| 2026-05-04 20:10 | 46.60916 | -120.52218 | 31884 ft | 428 kts | 309° |
| 2026-05-04 20:11 | 46.64241 | -120.59413 | 31885 ft | 428 kts | 308° |
| 2026-05-04 20:11 | 46.67556 | -120.66548 | 31889 ft | 428 kts | 309° |
| 2026-05-04 20:12 | 46.70951 | -120.73725 | 31592 ft | 427 kts | 309° |
| 2026-05-04 20:12 | 46.72639 | -120.77266 | 31221 ft | 423 kts | 309° |
| 2026-05-04 20:12 | 46.74289 | -120.80726 | 30682 ft | 420 kts | 309° |
| 2026-05-04 20:12 | 46.75948 | -120.84209 | 30141 ft | 417 kts | 309° |
| 2026-05-04 20:13 | 46.77592 | -120.87670 | 29613 ft | 414 kts | 308° |
| 2026-05-04 20:13 | 46.79219 | -120.91116 | 29075 ft | 411 kts | 308° |
| 2026-05-04 20:13 | 46.80832 | -120.94545 | 28517 ft | 409 kts | 308° |
| 2026-05-04 20:13 | 46.82437 | -120.97957 | 27968 ft | 407 kts | 308° |
| 2026-05-04 20:14 | 46.84034 | -121.01352 | 27418 ft | 404 kts | 308° |
| 2026-05-04 20:14 | 46.85618 | -121.04723 | 26870 ft | 402 kts | 308° |
| 2026-05-04 20:14 | 46.87200 | -121.08093 | 26332 ft | 400 kts | 308° |
| 2026-05-04 20:14 | 46.88770 | -121.11442 | 25796 ft | 398 kts | 308° |
| 2026-05-04 20:15 | 46.90327 | -121.14767 | 25269 ft | 396 kts | 308° |
| 2026-05-04 20:15 | 46.91878 | -121.18087 | 24773 ft | 394 kts | 308° |
| 2026-05-04 20:15 | 46.93417 | -121.21388 | 24284 ft | 392 kts | 308° |
| 2026-05-04 20:15 | 46.94951 | -121.24679 | 23785 ft | 391 kts | 308° |
| 2026-05-04 20:16 | 46.96477 | -121.27955 | 23324 ft | 389 kts | 307° |
| 2026-05-04 20:16 | 46.97992 | -121.31219 | 22870 ft | 386 kts | 307° |
| 2026-05-04 20:16 | 46.99500 | -121.34467 | 22407 ft | 385 kts | 307° |
| 2026-05-04 20:16 | 47.01003 | -121.37705 | 21934 ft | 383 kts | 307° |
| 2026-05-04 20:17 | 47.02497 | -121.40927 | 21473 ft | 381 kts | 307° |
| 2026-05-04 20:17 | 47.03983 | -121.44135 | 21007 ft | 379 kts | 307° |
| 2026-05-04 20:17 | 47.05457 | -121.47320 | 20518 ft | 377 kts | 307° |
| 2026-05-04 20:17 | 47.06928 | -121.50502 | 20015 ft | 375 kts | 307° |
| 2026-05-04 20:18 | 47.08387 | -121.53666 | 19516 ft | 373 kts | 307° |
| 2026-05-04 20:18 | 47.09838 | -121.56816 | 19012 ft | 371 kts | 307° |
| 2026-05-04 20:18 | 47.11279 | -121.59947 | 18508 ft | 369 kts | 307° |
| 2026-05-04 20:18 | 47.12711 | -121.63060 | 17981 ft | 367 kts | 306° |
| 2026-05-04 20:19 | 47.14134 | -121.66153 | 17464 ft | 364 kts | 306° |
| 2026-05-04 20:19 | 47.15545 | -121.69225 | 16983 ft | 361 kts | 306° |
| 2026-05-04 20:19 | 47.16941 | -121.72275 | 16483 ft | 359 kts | 306° |
| 2026-05-04 20:19 | 47.18328 | -121.75311 | 15974 ft | 356 kts | 306° |
| 2026-05-04 20:20 | 47.19706 | -121.78329 | 15454 ft | 354 kts | 306° |
| 2026-05-04 20:20 | 47.21074 | -121.81327 | 14954 ft | 352 kts | 306° |
| 2026-05-04 20:20 | 47.22423 | -121.84285 | 14649 ft | 345 kts | 306° |
| 2026-05-04 20:20 | 47.23754 | -121.87201 | 14330 ft | 342 kts | 306° |
| 2026-05-04 20:21 | 47.25076 | -121.90099 | 14021 ft | 340 kts | 306° |
| 2026-05-04 20:21 | 47.26389 | -121.92982 | 13707 ft | 338 kts | 306° |
| 2026-05-04 20:21 | 47.28974 | -121.98676 | 13082 ft | 335 kts | 305° |
| 2026-05-04 20:22 | 47.30260 | -122.01520 | 12770 ft | 334 kts | 305° |
| 2026-05-04 20:22 | 47.31564 | -122.04410 | 12473 ft | 333 kts | 304° |
| 2026-05-04 20:22 | 47.32798 | -122.07144 | 12279 ft | 314 kts | 304° |
| 2026-05-04 20:22 | 47.33974 | -122.09752 | 12026 ft | 298 kts | 304° |
| 2026-05-04 20:23 | 47.35263 | -122.12097 | 11981 ft | 294 kts | 319° |
| 2026-05-04 20:23 | 47.36942 | -122.13789 | 11973 ft | 292 kts | 335° |
| 2026-05-04 20:23 | 47.38862 | -122.14698 | 11653 ft | 290 kts | 352° |
| 2026-05-04 20:23 | 47.40872 | -122.14878 | 11287 ft | 289 kts | 358° |
| 2026-05-04 20:24 | 47.42885 | -122.14976 | 10915 ft | 290 kts | 358° |
| 2026-05-04 20:24 | 47.44897 | -122.15074 | 10573 ft | 289 kts | 357° |
| 2026-05-04 20:24 | 47.46893 | -122.15175 | 10031 ft | 286 kts | 357° |
| 2026-05-04 20:24 | 47.48882 | -122.15279 | 9430 ft | 286 kts | 357° |
| 2026-05-04 20:25 | 47.50866 | -122.15387 | 8873 ft | 285 kts | 357° |
| 2026-05-04 20:25 | 47.52838 | -122.15496 | 8308 ft | 283 kts | 357° |
| 2026-05-04 20:25 | 47.54787 | -122.15603 | 7878 ft | 275 kts | 357° |
| 2026-05-04 20:25 | 47.56697 | -122.15709 | 7347 ft | 272 kts | 357° |
| 2026-05-04 20:26 | 47.58579 | -122.15807 | 6871 ft | 269 kts | 357° |
| 2026-05-04 20:26 | 47.60439 | -122.15904 | 6338 ft | 266 kts | 357° |
| 2026-05-04 20:26 | 47.62281 | -122.16004 | 5778 ft | 264 kts | 357° |
| 2026-05-04 20:26 | 47.64114 | -122.16105 | 5237 ft | 262 kts | 357° |
| 2026-05-04 20:27 | 47.65890 | -122.16522 | 4672 ft | 258 kts | 336° |
| 2026-05-04 20:27 | 47.67347 | -122.18021 | 4239 ft | 256 kts | 311° |
| 2026-05-04 20:27 | 47.68228 | -122.20282 | 4018 ft | 254 kts | 286° |
| 2026-05-04 20:27 | 47.68376 | -122.22882 | 3981 ft | 257 kts | 262° |
| 2026-05-04 20:28 | 47.67763 | -122.25371 | 3984 ft | 258 kts | 237° |
| 2026-05-04 20:28 | 47.66771 | -122.27521 | 3979 ft | 246 kts | 236° |
| 2026-05-04 20:28 | 47.65783 | -122.29510 | 3976 ft | 233 kts | 227° |
| 2026-05-04 20:28 | 47.64529 | -122.30933 | 3870 ft | 225 kts | 207° |
| 2026-05-04 20:29 | 47.63083 | -122.31597 | 3641 ft | 213 kts | 186° |
| 2026-05-04 20:29 | 47.61627 | -122.31652 | 3391 ft | 208 kts | 181° |
| 2026-05-04 20:29 | 47.60180 | -122.31664 | 3107 ft | 205 kts | 181° |
| 2026-05-04 20:29 | 47.58790 | -122.31677 | 2870 ft | 195 kts | 181° |
| 2026-05-04 20:30 | 47.57459 | -122.31688 | 2587 ft | 185 kts | 181° |
| 2026-05-04 20:30 | 47.56231 | -122.31699 | 2350 ft | 175 kts | 181° |
| 2026-05-04 20:30 | 47.55067 | -122.31709 | 2133 ft | 161 kts | 181° |
| 2026-05-04 20:30 | 47.53960 | -122.31720 | 1923 ft | 153 kts | 181° |
| 2026-05-04 20:31 | 47.52926 | -122.31728 | 1728 ft | 149 kts | 181° |
| 2026-05-04 20:31 | 47.51898 | -122.31736 | 1528 ft | 147 kts | 181° |
| 2026-05-04 20:31 | 47.50882 | -122.31741 | 1319 ft | 145 kts | 181° |
| 2026-05-04 20:31 | 47.49877 | -122.31746 | 1117 ft | 144 kts | 182° |
| 2026-05-04 20:32 | 47.48881 | -122.31759 | 935 ft | 143 kts | 180° |
| 2026-05-04 20:32 | 47.47893 | -122.31785 | 749 ft | 141 kts | 181° |
| 2026-05-04 20:32 | 47.46910 | -122.31790 | 571 ft | 141 kts | 180° |
| 2026-05-04 20:32 | 47.45938 | -122.31793 | 415 ft | 132 kts | 180° |
| 2026-05-04 20:33 | 47.45185 | -122.31800 | 396 ft | 84 kts | 180° |
| 2026-05-04 20:33 | 47.44762 | -122.31802 | 387 ft | 52 kts | 178° |
| 2026-05-04 20:33 | 47.44536 | -122.31702 | 378 ft | 32 kts | 153° |
| 2026-05-04 20:33 | 47.44359 | -122.31554 | 375 ft | 19 kts | 151° |
| 2026-05-04 20:34 | 47.44280 | -122.31468 | 377 ft | 14 kts | 135° |
| 2026-05-04 20:34 | 47.44231 | -122.31333 | 380 ft | 17 kts | 105° |
| 2026-05-04 20:34 | 47.44192 | -122.31169 | 383 ft | 19 kts | 121° |
| 2026-05-04 20:34 | 47.44082 | -122.31033 | 381 ft | 23 kts | 150° |
| 2026-05-04 20:35 | 47.43943 | -122.30916 | 379 ft | 20 kts | 146° |
| 2026-05-04 20:35 | 47.43900 | -122.30733 | 380 ft | 21 kts | 90° |
| 2026-05-04 20:35 | 47.43989 | -122.30635 | 383 ft | 17 kts | 2° |
| 2026-05-04 20:35 | 47.44087 | -122.30633 | 386 ft | 9 kts | 0° |
| 2026-05-04 20:36 | 47.44103 | -122.30633 | 386 ft | 0 kts | 0° |
| 2026-05-04 20:36 | 47.44127 | -122.30587 | 387 ft | 10 kts | 89° |
| 2026-05-04 20:36 | 47.44126 | -122.30485 | 388 ft | 8 kts | 91° |
| 2026-05-04 20:36 | 47.44126 | -122.30453 | 388 ft | 3 kts | 88° |
| 2026-05-04 20:37 | 47.44126 | -122.30440 | 388 ft | 0 kts | 89° |